createdAt,value
2023-05-20T00:00:15.568Z,103319.66
2023-05-20T00:03:21.299Z,103324.63
2023-05-20T00:06:27.770Z,103322.88
2023-05-20T00:09:32.898Z,103321.16
2023-05-20T00:12:39.094Z,103311.72
2023-05-20T00:15:44.103Z,103309.06
2023-05-20T00:18:49.132Z,103316.84
2023-05-20T00:21:57.632Z,103315.91
2023-05-20T00:25:02.683Z,103318.44
2023-05-20T00:28:08.272Z,103313.47
2023-05-20T00:31:13.836Z,103314.41
2023-05-20T00:34:18.881Z,103312.66
2023-05-20T00:37:25.328Z,103315.94
2023-05-20T00:40:30.520Z,103319.13
2023-05-20T00:43:35.434Z,103321.72
2023-05-20T00:46:40.777Z,103329.28
2023-05-20T00:49:49.568Z,103318.28
2023-05-20T00:52:58.852Z,103314.84
2023-05-20T00:56:04.084Z,103322.53
2023-05-20T00:59:09.253Z,103319.38
2023-05-20T01:02:14.612Z,103316.66
2023-05-20T01:05:19.755Z,103325.88
2023-05-20T01:08:27.030Z,103328.47
2023-05-20T01:11:36.776Z,103338.63
2023-05-20T01:14:48.436Z,103335.97
2023-05-20T01:18:01.440Z,103340.13
2023-05-20T01:21:08.136Z,103333.25
2023-05-20T01:24:14.894Z,103338.22
2023-05-20T01:27:22.689Z,103339.06
2023-05-20T01:30:31.120Z,103340.69
2023-05-20T01:33:38.297Z,103341.53
2023-05-20T01:36:43.666Z,103344.06
2023-05-20T01:39:52.467Z,103339.03
2023-05-20T01:42:58.217Z,103331.28
2023-05-20T01:46:03.462Z,103336.28
2023-05-20T01:49:08.541Z,103344.00
2023-05-20T01:52:14.083Z,103343.94
2023-05-20T01:55:20.985Z,103341.53
2023-05-20T01:58:26.071Z,103342.41
2023-05-20T02:01:31.296Z,103336.41
2023-05-20T02:04:36.327Z,103336.28
2023-05-20T02:07:41.313Z,103339.69
2023-05-20T02:10:50.081Z,103341.34
2023-05-20T02:13:55.163Z,103332.75
2023-05-20T02:17:00.797Z,103341.25
2023-05-20T02:20:08.718Z,103334.47
2023-05-20T02:23:13.731Z,103339.81
2023-05-20T02:26:20.995Z,103340.53
2023-05-20T02:29:26.177Z,103338.97
2023-05-20T02:32:31.146Z,103344.06
2023-05-20T02:35:38.113Z,103341.53
2023-05-20T02:38:43.166Z,103354.09
2023-05-20T02:41:50.545Z,103350.00
2023-05-20T02:44:58.497Z,103356.84
2023-05-20T02:48:03.753Z,103360.25
2023-05-20T02:51:10.085Z,103348.34
2023-05-20T02:54:15.135Z,103352.88
2023-05-20T02:57:21.844Z,103346.88
2023-05-20T03:00:28.794Z,103352.06
2023-05-20T03:03:33.872Z,103351.25
2023-05-20T03:06:39.065Z,103353.81
2023-05-20T03:09:44.028Z,103359.09
2023-05-20T03:12:51.157Z,103354.84
2023-05-20T03:15:56.358Z,103351.44
2023-05-20T03:19:02.338Z,103360.00
2023-05-20T03:22:07.481Z,103364.97
2023-05-20T03:25:13.985Z,103371.84
2023-05-20T03:28:20.778Z,103364.31
2023-05-20T03:31:26.133Z,103366.06
2023-05-20T03:34:31.374Z,103368.81
2023-05-20T03:37:37.025Z,103378.25
2023-05-20T03:40:42.420Z,103376.69
2023-05-20T03:43:48.831Z,103366.31
2023-05-20T03:46:53.989Z,103374.25
2023-05-20T03:49:59.121Z,103377.56
2023-05-20T03:53:04.280Z,103383.59
2023-05-20T03:56:16.148Z,103386.16
2023-05-20T03:59:23.444Z,103386.97
2023-05-20T04:02:28.603Z,103381.06
2023-05-20T04:05:33.886Z,103378.53
2023-05-20T04:08:41.182Z,103383.63
2023-05-20T04:11:46.326Z,103384.63
2023-05-20T04:14:52.805Z,103389.91
2023-05-20T04:17:58.435Z,103376.31
2023-05-20T04:21:03.726Z,103388.34
2023-05-20T04:24:09.210Z,103373.06
2023-05-20T04:27:14.782Z,103375.75
2023-05-20T04:30:22.099Z,103368.22
2023-05-20T04:33:28.024Z,103368.25
2023-05-20T04:36:34.732Z,103369.19
2023-05-20T04:39:43.713Z,103371.03
2023-05-20T04:42:52.696Z,103370.28
2023-05-20T04:46:00.025Z,103379.69
2023-05-20T04:49:05.584Z,103382.34
2023-05-20T04:52:13.531Z,103379.81
2023-05-20T04:55:19.886Z,103379.09
2023-05-20T04:58:25.465Z,103369.78
2023-05-20T05:01:32.479Z,103368.22
2023-05-20T05:04:37.569Z,103376.78
2023-05-20T05:07:42.707Z,103366.56
2023-05-20T05:10:49.278Z,103376.91
2023-05-20T05:13:54.517Z,103361.59
2023-05-20T05:17:04.793Z,103372.75
2023-05-20T05:20:11.197Z,103373.69
2023-05-20T05:23:16.745Z,103369.50
2023-05-20T05:26:22.425Z,103367.84
2023-05-20T05:29:27.692Z,103371.28
2023-05-20T05:32:34.804Z,103363.69
2023-05-20T05:35:39.919Z,103364.59
2023-05-20T05:38:45.531Z,103364.78
2023-05-20T05:41:50.576Z,103371.66
2023-05-20T05:44:57.291Z,103371.72
2023-05-20T05:48:05.596Z,103378.59
2023-05-20T05:51:12.605Z,103382.06
2023-05-20T05:54:17.611Z,103369.22
2023-05-20T05:57:23.090Z,103373.50
2023-05-20T06:00:28.803Z,103375.19
2023-05-20T06:03:35.507Z,103369.22
2023-05-20T06:06:40.511Z,103365.75
2023-05-20T06:09:45.879Z,103370.88
2023-05-20T06:12:50.873Z,103366.56
2023-05-20T06:15:56.452Z,103369.97
2023-05-20T06:19:05.614Z,103375.91
2023-05-20T06:22:12.105Z,103376.69
2023-05-20T06:25:18.214Z,103379.25
2023-05-20T06:28:24.007Z,103383.53
2023-05-20T06:31:30.558Z,103381.72
2023-05-20T06:34:37.709Z,103375.72
2023-05-20T06:37:42.963Z,103380.81
2023-05-20T06:40:48.176Z,103376.50
2023-05-20T06:43:53.774Z,103379.97
2023-05-20T06:47:18.210Z,103385.13
2023-05-20T06:50:28.424Z,103385.00
2023-05-20T06:53:33.527Z,103388.28
2023-05-20T06:56:38.623Z,103390.81
2023-05-20T06:59:43.789Z,103387.34
2023-05-20T07:02:49.418Z,103392.53
2023-05-20T07:05:56.572Z,103387.28
2023-05-20T07:09:02.500Z,103390.66
2023-05-20T07:12:08.766Z,103391.53
2023-05-20T07:15:14.973Z,103396.53
2023-05-20T07:18:21.665Z,103387.09
2023-05-20T07:21:32.487Z,103385.22
2023-05-20T07:25:03.976Z,103385.44
2023-05-20T07:28:09.026Z,103390.47
2023-05-20T07:31:14.626Z,103378.22
2023-05-20T07:34:23.118Z,103376.50
2023-05-20T07:37:31.243Z,103376.38
2023-05-20T07:40:36.930Z,103384.75
2023-05-20T07:43:42.296Z,103377.75
2023-05-20T07:46:47.500Z,103386.63
2023-05-20T07:49:52.881Z,103378.66
2023-05-20T07:52:59.344Z,103364.69
2023-05-20T07:56:07.552Z,103364.69
2023-05-20T07:59:13.165Z,103364.63
2023-05-20T08:02:24.017Z,103358.63
2023-05-20T08:05:30.286Z,103360.31
2023-05-20T08:08:40.535Z,103361.06
2023-05-20T08:11:50.854Z,103357.72
2023-05-20T08:14:56.384Z,103360.06
2023-05-20T08:18:01.664Z,103365.22
2023-05-20T08:21:08.086Z,103366.97
2023-05-20T08:24:15.355Z,103366.91
2023-05-20T08:27:20.473Z,103357.47
2023-05-20T08:30:25.522Z,103353.94
2023-05-20T08:33:31.392Z,103363.38
2023-05-20T08:36:36.688Z,103365.81
2023-05-20T08:39:46.293Z,103355.41
2023-05-20T08:42:53.837Z,103364.03
2023-05-20T08:45:59.892Z,103352.09
2023-05-20T08:49:07.915Z,103360.75
2023-05-20T08:52:13.886Z,103352.75
2023-05-20T08:55:25.229Z,103362.22
2023-05-20T08:58:30.363Z,103350.06
2023-05-20T09:01:37.104Z,103353.50
2023-05-20T09:04:42.467Z,103351.75
2023-05-20T09:07:47.815Z,103355.91
2023-05-20T09:10:55.954Z,103350.75
2023-05-20T09:14:00.940Z,103354.22
2023-05-20T09:17:08.491Z,103340.19
2023-05-20T09:20:14.629Z,103349.72
2023-05-20T09:23:21.783Z,103349.06
2023-05-20T09:26:31.071Z,103340.44
2023-05-20T09:29:36.715Z,103342.25
2023-05-20T09:32:42.068Z,103342.41
2023-05-20T09:35:47.537Z,103343.13
2023-05-20T09:38:54.689Z,103338.00
2023-05-20T09:42:07.235Z,103343.88
2023-05-20T09:45:13.544Z,103339.69
2023-05-20T09:48:19.172Z,103339.63
2023-05-20T09:51:24.503Z,103342.28
2023-05-20T09:54:30.686Z,103343.94
2023-05-20T09:57:38.314Z,103340.53
2023-05-20T10:00:43.663Z,103341.22
2023-05-20T10:03:48.678Z,103334.22
2023-05-20T10:07:13.089Z,103338.41
2023-05-20T10:10:28.932Z,103335.97
2023-05-20T10:13:52.029Z,103344.34
2023-05-20T10:17:07.968Z,103348.84
2023-05-20T10:20:14.960Z,103352.88
2023-05-20T10:23:24.229Z,103345.41
2023-05-20T10:26:37.746Z,103335.75
2023-05-20T10:29:51.584Z,103336.53
2023-05-20T10:33:00.750Z,103327.78
2023-05-20T10:36:06.876Z,103329.31
2023-05-20T10:39:17.613Z,103323.94
2023-05-20T10:42:30.738Z,103318.69
2023-05-20T10:45:37.670Z,103318.19
2023-05-20T10:48:44.371Z,103316.69
2023-05-20T10:51:49.542Z,103326.94
2023-05-20T10:54:58.267Z,103309.97
2023-05-20T10:58:03.725Z,103298.53
2023-05-20T11:01:11.424Z,103305.63
2023-05-20T11:04:17.894Z,103312.59
2023-05-20T11:07:29.627Z,103304.81
2023-05-20T11:10:36.286Z,103306.94
2023-05-20T11:13:41.648Z,103302.53
2023-05-20T11:16:48.761Z,103305.53
2023-05-20T11:19:53.862Z,103295.97
2023-05-20T11:22:59.018Z,103296.72
2023-05-20T11:26:04.184Z,103291.31
2023-05-20T11:29:09.326Z,103286.78
2023-05-20T11:32:16.095Z,103285.59
2023-05-20T11:35:25.257Z,103286.16
2023-05-20T11:38:30.341Z,103277.22
2023-05-20T11:41:35.799Z,103274.75
2023-05-20T11:44:46.785Z,103268.41
2023-05-20T11:48:03.987Z,103260.69
2023-05-20T11:51:10.915Z,103265.66
2023-05-20T11:54:15.963Z,103251.41
2023-05-20T11:57:21.345Z,103262.00
2023-05-20T12:00:29.252Z,103258.38
2023-05-20T12:03:38.090Z,103250.28
2023-05-20T12:06:44.189Z,103247.56
2023-05-20T12:09:49.226Z,103239.13
2023-05-20T12:12:54.259Z,103236.88
2023-05-20T12:15:59.875Z,103232.13
2023-05-20T12:19:06.605Z,103230.41
2023-05-20T12:22:13.319Z,103236.50
2023-05-20T12:25:19.417Z,103244.38
2023-05-20T12:28:24.631Z,103246.66
2023-05-20T12:31:31.718Z,103252.72
2023-05-20T12:34:39.702Z,103239.34
2023-05-20T12:37:45.451Z,103239.25
2023-05-20T12:40:50.722Z,103242.31
2023-05-20T12:43:55.710Z,103248.13
2023-05-20T12:47:01.096Z,103247.34
2023-05-20T12:50:08.935Z,103254.91
2023-05-20T12:53:14.484Z,103247.78
2023-05-20T12:56:20.078Z,103241.06
2023-05-20T12:59:25.074Z,103238.50
2023-05-20T13:02:30.278Z,103238.75
2023-05-20T13:05:36.724Z,103237.38
2023-05-20T13:08:41.726Z,103246.63
2023-05-20T13:11:46.730Z,103236.09
2023-05-20T13:14:52.566Z,103227.91
2023-05-20T13:17:57.902Z,103226.81
2023-05-20T13:21:04.542Z,103218.38
2023-05-20T13:24:10.175Z,103215.47
2023-05-20T13:27:15.366Z,103213.88
2023-05-20T13:30:20.411Z,103214.91
2023-05-20T13:33:25.524Z,103216.56
2023-05-20T13:36:33.390Z,103209.84
2023-05-20T13:39:38.536Z,103209.50
2023-05-20T13:42:44.248Z,103204.53
2023-05-20T13:45:49.225Z,103206.00
2023-05-20T13:48:54.663Z,103202.72
2023-05-20T13:52:01.275Z,103193.78
2023-05-20T13:55:07.278Z,103193.22
2023-05-20T13:58:12.733Z,103190.66
2023-05-20T14:01:18.429Z,103185.31
2023-05-20T14:04:24.689Z,103176.19
2023-05-20T14:07:31.144Z,103185.44
2023-05-20T14:10:36.533Z,103173.63
2023-05-20T14:13:41.838Z,103168.75
2023-05-20T14:16:46.860Z,103167.44
2023-05-20T14:19:52.015Z,103159.50
2023-05-20T14:23:00.700Z,103156.59
2023-05-20T14:26:05.904Z,103152.22
2023-05-20T14:29:11.297Z,103148.44
2023-05-20T14:32:16.424Z,103152.91
2023-05-20T14:35:21.777Z,103156.19
2023-05-20T14:38:28.270Z,103155.00
2023-05-20T14:41:33.625Z,103157.16
2023-05-20T14:44:38.346Z,103155.09
2023-05-20T14:47:43.552Z,103153.69
2023-05-20T14:50:49.875Z,103149.31
2023-05-20T14:53:56.579Z,103145.34
2023-05-20T14:57:02.177Z,103145.28
2023-05-20T15:00:08.875Z,103139.09
2023-05-20T15:03:14.944Z,103138.78
2023-05-20T15:06:20.144Z,103142.91
2023-05-20T15:09:26.557Z,103147.34
2023-05-20T15:12:31.542Z,103141.56
2023-05-20T15:15:36.605Z,103129.03
2023-05-20T15:18:41.798Z,103128.41
2023-05-20T15:21:47.124Z,103132.38
2023-05-20T15:24:53.591Z,103128.28
2023-05-20T15:27:58.599Z,103121.66
2023-05-20T15:31:03.702Z,103123.53
2023-05-20T15:34:08.792Z,103120.50
2023-05-20T15:37:14.005Z,103117.69
2023-05-20T15:40:20.822Z,103120.81
2023-05-20T15:43:25.896Z,103112.66
2023-05-20T15:46:31.073Z,103108.09
2023-05-20T15:49:36.151Z,103109.66
2023-05-20T15:52:42.379Z,103109.22
2023-05-20T15:55:48.937Z,103108.75
2023-05-20T15:58:53.955Z,103120.13
2023-05-20T16:01:59.176Z,103111.66
2023-05-20T16:05:04.400Z,103118.56
2023-05-20T16:08:09.518Z,103116.91
2023-05-20T16:11:15.860Z,103110.72
2023-05-20T16:14:20.930Z,103097.41
2023-05-20T16:17:25.971Z,103101.13
2023-05-20T16:20:31.142Z,103095.66
2023-05-20T16:23:36.564Z,103093.25
2023-05-20T16:26:43.067Z,103087.84
2023-05-20T16:29:48.181Z,103087.09
2023-05-20T16:32:53.294Z,103090.00
2023-05-20T16:35:58.262Z,103083.53
2023-05-20T16:39:03.790Z,103086.28
2023-05-20T16:42:10.181Z,103080.59
2023-05-20T16:45:15.327Z,103077.25
2023-05-20T16:48:20.300Z,103078.06
2023-05-20T16:51:26.175Z,103082.31
2023-05-20T16:54:31.326Z,103086.72
2023-05-20T16:57:38.356Z,103088.41
2023-05-20T17:00:44.218Z,103072.66
2023-05-20T17:03:49.800Z,103076.06
2023-05-20T17:06:54.941Z,103079.63
2023-05-20T17:10:00.266Z,103072.56
2023-05-20T17:13:06.720Z,103072.63
2023-05-20T17:16:13.535Z,103066.34
2023-05-20T17:19:18.677Z,103069.97
2023-05-20T17:22:23.920Z,103066.88
2023-05-20T17:25:29.086Z,103080.88
2023-05-20T17:28:35.600Z,103075.72
2023-05-20T17:31:40.763Z,103085.13
2023-05-20T17:34:45.970Z,103082.03
2023-05-20T17:37:51.109Z,103072.38
2023-05-20T17:40:56.558Z,103064.28
2023-05-20T17:44:05.957Z,103074.34
2023-05-20T17:47:11.120Z,103072.00
2023-05-20T17:50:16.704Z,103079.22
2023-05-20T17:53:22.210Z,103069.91
2023-05-20T17:56:27.804Z,103077.75
2023-05-20T17:59:36.811Z,103083.09
2023-05-20T18:02:47.375Z,103076.13
2023-05-20T18:05:54.374Z,103078.91
2023-05-20T18:09:01.441Z,103079.09
2023-05-20T18:12:07.785Z,103073.34
2023-05-20T18:15:17.020Z,103079.53
2023-05-20T18:18:22.516Z,103090.28
2023-05-20T18:21:27.591Z,103085.91
2023-05-20T18:24:32.996Z,103085.03
2023-05-20T18:27:37.975Z,103082.66
2023-05-20T18:30:44.458Z,103083.00
2023-05-20T18:33:49.530Z,103080.47
2023-05-20T18:36:54.921Z,103077.22
2023-05-20T18:39:59.917Z,103085.81
2023-05-20T18:43:04.938Z,103086.69
2023-05-20T18:46:11.730Z,103087.63
2023-05-20T18:49:16.883Z,103090.31
2023-05-20T18:52:21.877Z,103086.91
2023-05-20T18:55:27.115Z,103092.31
2023-05-20T18:58:32.510Z,103092.38
2023-05-20T19:01:40.285Z,103091.59
2023-05-20T19:04:45.320Z,103089.06
2023-05-20T19:07:50.402Z,103097.66
2023-05-20T19:10:56.764Z,103097.88
2023-05-20T19:14:04.184Z,103091.91
2023-05-20T19:17:10.617Z,103090.22
2023-05-20T19:20:15.667Z,103095.59
2023-05-20T19:23:21.110Z,103097.31
2023-05-20T19:26:26.852Z,103097.41
2023-05-20T19:29:33.153Z,103092.28
2023-05-20T19:32:39.775Z,103092.34
2023-05-20T19:35:44.886Z,103090.69
2023-05-20T19:38:50.185Z,103082.13
2023-05-20T19:41:55.173Z,103083.94
2023-05-20T19:45:00.241Z,103089.88
2023-05-20T19:48:08.058Z,103092.50
2023-05-20T19:51:15.075Z,103101.94
2023-05-20T19:54:20.088Z,103087.41
2023-05-20T19:57:25.128Z,103083.97
2023-05-20T20:00:30.339Z,103086.56
2023-05-20T20:03:37.582Z,103091.78
2023-05-20T20:06:42.623Z,103088.38
2023-05-20T20:09:51.728Z,103085.84
2023-05-20T20:12:56.759Z,103087.56
2023-05-20T20:16:02.243Z,103095.28
2023-05-20T20:19:08.724Z,103089.31
2023-05-20T20:22:13.875Z,103081.63
2023-05-20T20:25:19.006Z,103086.78
2023-05-20T20:28:24.278Z,103086.78
2023-05-20T20:31:29.382Z,103091.94
2023-05-20T20:34:35.935Z,103091.94
2023-05-20T20:37:41.252Z,103087.69
2023-05-20T20:40:47.197Z,103080.88
2023-05-20T20:43:52.559Z,103075.72
2023-05-20T20:46:58.407Z,103078.28
2023-05-20T20:50:04.928Z,103077.47
2023-05-20T20:53:10.098Z,103079.19
2023-05-20T20:56:15.324Z,103074.94
2023-05-20T20:59:26.241Z,103073.19
2023-05-20T21:02:31.779Z,103069.75
2023-05-20T21:05:39.099Z,103068.03
2023-05-20T21:08:44.141Z,103062.09
2023-05-20T21:11:50.888Z,103070.63
2023-05-20T21:14:56.228Z,103072.34
2023-05-20T21:18:01.363Z,103071.47
2023-05-20T21:21:12.339Z,103080.88
2023-05-20T21:24:18.681Z,103077.47
2023-05-20T21:27:23.694Z,103076.59
2023-05-20T21:30:28.821Z,103069.78
2023-05-20T21:33:33.946Z,103062.94
2023-05-20T21:36:40.665Z,103075.75
2023-05-20T21:39:45.694Z,103071.47
2023-05-20T21:42:50.809Z,103068.91
2023-05-20T21:45:55.953Z,103073.16
2023-05-20T21:49:01.165Z,103068.03
2023-05-20T21:52:08.373Z,103062.06
2023-05-20T21:55:13.754Z,103061.19
2023-05-20T21:58:18.760Z,103056.94
2023-05-20T22:01:23.890Z,103060.34
2023-05-20T22:04:29.276Z,103056.06
2023-05-20T22:07:35.904Z,103053.47
2023-05-20T22:10:41.650Z,103057.78
2023-05-20T22:13:46.684Z,103051.75
2023-05-20T22:16:51.809Z,103044.09
2023-05-20T22:19:56.983Z,103050.91
2023-05-20T22:23:04.707Z,103048.38
2023-05-20T22:26:09.994Z,103039.81
2023-05-20T22:29:15.062Z,103042.38
2023-05-20T22:32:20.225Z,103046.66
2023-05-20T22:35:25.441Z,103044.94
2023-05-20T22:38:32.005Z,103040.63
2023-05-20T22:41:36.975Z,103043.19
2023-05-20T22:44:42.112Z,103048.31
2023-05-20T22:47:47.514Z,103047.47
2023-05-20T22:50:54.164Z,103051.72
2023-05-20T22:54:00.617Z,103050.84
2023-05-20T22:57:06.183Z,103048.28
2023-05-20T23:00:16.367Z,103053.38
2023-05-20T23:03:21.567Z,103046.53
2023-05-20T23:06:26.957Z,103040.56
2023-05-20T23:09:33.620Z,103037.13
2023-05-20T23:12:39.115Z,103038.00
2023-05-20T23:15:48.186Z,103035.44
2023-05-20T23:18:53.297Z,103031.19
2023-05-20T23:21:58.468Z,103026.00
2023-05-20T23:25:05.776Z,103027.72
2023-05-20T23:28:13.076Z,103025.19
2023-05-20T23:31:18.774Z,103020.06
2023-05-20T23:34:23.939Z,103013.22
2023-05-20T23:37:29.219Z,103012.34
2023-05-20T23:40:35.703Z,103012.31
2023-05-20T23:43:40.653Z,103008.94
2023-05-20T23:46:45.988Z,103019.09
2023-05-20T23:49:51.023Z,103014.84
2023-05-20T23:52:56.166Z,103006.31
2023-05-20T23:56:03.081Z,103011.41
2023-05-20T23:59:08.189Z,103015.69
